createdAt,value
2022-12-22T00:02:45.904Z,6.63
2022-12-22T00:05:53.498Z,6.75
2022-12-22T00:09:05.513Z,7.18
2022-12-22T00:12:13.614Z,6.38
2022-12-22T00:15:22.536Z,6.53
2022-12-22T00:18:36.653Z,7.72
2022-12-22T00:24:59.371Z,6.50
2022-12-22T00:28:07.002Z,7.32
2022-12-22T00:31:14.468Z,7.30
2022-12-22T00:34:22.181Z,6.55
2022-12-22T00:37:33.421Z,7.88
2022-12-22T00:40:47.433Z,7.65
2022-12-22T00:47:04.581Z,6.97
2022-12-22T00:50:13.186Z,6.97
2022-12-22T00:53:21.140Z,7.70
2022-12-22T00:56:29.322Z,7.20
2022-12-22T00:59:37.653Z,7.25
2022-12-22T01:02:45.488Z,7.50
2022-12-22T01:05:53.322Z,7.60
2022-12-22T01:09:00.954Z,7.82
2022-12-22T01:12:08.454Z,7.85
2022-12-22T01:15:15.980Z,7.32
2022-12-22T01:18:24.515Z,7.78
2022-12-22T01:21:32.668Z,7.30
2022-12-22T01:24:40.394Z,7.93
2022-12-22T01:27:48.019Z,7.22
2022-12-22T01:30:59.533Z,7.47
2022-12-22T01:34:07.104Z,7.38
2022-12-22T01:37:14.403Z,7.40
2022-12-22T01:40:23.246Z,8.27
2022-12-22T01:43:44.745Z,7.18
2022-12-22T01:47:06.534Z,8.07
2022-12-22T01:50:15.842Z,7.75
2022-12-22T01:53:28.427Z,7.60
2022-12-22T01:56:36.590Z,8.05
2022-12-22T01:59:47.252Z,7.70
2022-12-22T02:02:55.765Z,8.00
2022-12-22T02:06:21.222Z,7.75
2022-12-22T02:09:48.742Z,7.57
2022-12-22T02:13:05.554Z,7.97
2022-12-22T02:16:47.443Z,7.45
2022-12-22T02:20:04.868Z,7.95
2022-12-22T02:23:47.649Z,7.05
2022-12-22T02:27:11.212Z,7.55
2022-12-22T02:30:26.595Z,7.32
2022-12-22T02:33:37.193Z,7.72
2022-12-22T02:37:32.380Z,8.00
2022-12-22T02:40:52.043Z,6.68
2022-12-22T02:44:09.586Z,7.80
2022-12-22T02:47:25.736Z,8.10
2022-12-22T02:50:47.190Z,7.47
2022-12-22T02:53:55.513Z,7.38
2022-12-22T02:57:03.232Z,7.65
2022-12-22T03:00:10.564Z,7.78
2022-12-22T03:03:18.357Z,7.47
2022-12-22T03:06:29.070Z,8.13
2022-12-22T03:09:36.704Z,8.23
2022-12-22T03:12:44.492Z,8.02
2022-12-22T03:15:52.151Z,7.13
2022-12-22T03:18:59.732Z,8.18
2022-12-22T03:22:07.051Z,8.30
2022-12-22T03:25:14.575Z,7.72
2022-12-22T03:28:08.133Z,8.20
2022-12-22T03:33:49.043Z,7.80
2022-12-22T03:36:38.374Z,7.60
2022-12-22T03:39:27.530Z,8.77
2022-12-22T03:42:34.950Z,8.82
2022-12-22T03:45:42.405Z,8.40
2022-12-22T03:48:31.862Z,8.50
2022-12-22T03:51:21.010Z,8.80
2022-12-22T03:54:12.616Z,8.23
2022-12-22T03:57:03.703Z,8.63
2022-12-22T03:59:52.919Z,9.63
2022-12-22T04:02:42.232Z,8.40
2022-12-22T04:05:31.544Z,8.38
2022-12-22T04:08:20.673Z,8.48
2022-12-22T04:11:34.514Z,9.27
2022-12-22T04:14:29.673Z,8.68
2022-12-22T04:17:23.260Z,8.70
2022-12-22T04:20:12.816Z,9.07
2022-12-22T04:23:01.980Z,9.20
2022-12-22T04:25:51.224Z,8.30
2022-12-22T04:28:40.474Z,9.00
2022-12-22T04:31:30.316Z,8.43
2022-12-22T04:34:19.571Z,9.23
2022-12-22T04:37:16.830Z,9.65
2022-12-22T04:40:07.177Z,8.80
2022-12-22T04:42:56.327Z,8.52
2022-12-22T04:45:46.026Z,8.80
2022-12-22T04:48:35.979Z,9.88
2022-12-22T04:51:27.126Z,8.65
2022-12-22T04:54:16.404Z,8.60
2022-12-22T04:57:05.708Z,8.95
2022-12-22T04:59:56.259Z,9.60
2022-12-22T05:02:45.590Z,8.13
2022-12-22T05:05:35.783Z,8.40
2022-12-22T05:08:24.966Z,8.25
2022-12-22T05:11:14.235Z,9.40
2022-12-22T05:14:07.148Z,9.02
2022-12-22T05:16:56.788Z,9.43
2022-12-22T05:19:46.006Z,9.20
2022-12-22T05:22:35.285Z,7.85
2022-12-22T05:25:29.916Z,8.93
2022-12-22T05:28:20.575Z,8.38
2022-12-22T05:31:18.707Z,8.43
2022-12-22T05:34:07.833Z,9.07
2022-12-22T05:36:57.147Z,8.52
2022-12-22T05:39:46.266Z,8.45
2022-12-22T05:42:38.256Z,9.48
2022-12-22T05:45:27.776Z,9.70
2022-12-22T05:48:21.169Z,8.77
2022-12-22T05:51:15.417Z,8.80
2022-12-22T05:54:04.653Z,8.70
2022-12-22T05:56:53.776Z,8.63
2022-12-22T05:59:42.955Z,8.55
2022-12-22T06:02:32.248Z,9.32
2022-12-22T06:05:23.191Z,8.65
2022-12-22T06:08:12.323Z,8.68
2022-12-22T06:11:01.515Z,8.43
2022-12-22T06:13:50.846Z,8.75
2022-12-22T06:16:40.131Z,9.68
2022-12-22T06:19:29.346Z,9.48
2022-12-22T06:22:19.864Z,8.60
2022-12-22T06:25:13.758Z,8.38
2022-12-22T06:28:07.373Z,8.75
2022-12-22T06:30:56.800Z,8.50
2022-12-22T06:33:46.533Z,8.23
2022-12-22T06:36:35.729Z,8.55
2022-12-22T06:39:24.933Z,8.60
2022-12-22T06:42:32.443Z,8.00
2022-12-22T06:45:23.230Z,8.15
2022-12-22T06:48:14.240Z,9.15
2022-12-22T06:51:03.497Z,8.18
2022-12-22T06:53:52.622Z,9.07
2022-12-22T06:56:41.915Z,8.30
2022-12-22T06:59:31.028Z,8.65
2022-12-22T07:02:20.408Z,8.45
2022-12-22T07:05:10.025Z,8.48
2022-12-22T07:08:05.766Z,9.43
2022-12-22T07:11:00.271Z,7.70
2022-12-22T07:13:49.441Z,7.80
2022-12-22T07:16:38.584Z,8.38
2022-12-22T07:19:27.735Z,8.50
2022-12-22T07:22:16.945Z,8.65
2022-12-22T07:25:06.392Z,8.27
2022-12-22T07:27:55.537Z,7.90
2022-12-22T07:30:44.813Z,8.98
2022-12-22T07:33:34.168Z,7.88
2022-12-22T07:36:23.433Z,7.75
2022-12-22T07:39:13.813Z,8.25
2022-12-22T07:42:21.366Z,7.65
2022-12-22T07:45:10.979Z,8.43
2022-12-22T07:48:01.642Z,8.05
2022-12-22T07:50:50.832Z,8.02
2022-12-22T07:53:41.656Z,8.30
2022-12-22T07:56:31.171Z,9.23
2022-12-22T07:59:20.764Z,9.50
2022-12-22T08:02:13.106Z,8.15
2022-12-22T08:05:02.402Z,8.40
2022-12-22T08:07:53.386Z,8.88
2022-12-22T08:10:42.560Z,8.68
2022-12-22T08:13:32.145Z,8.38
2022-12-22T08:16:22.467Z,8.68
2022-12-22T08:19:11.751Z,8.30
2022-12-22T08:22:05.222Z,7.80
2022-12-22T08:24:55.354Z,8.55
2022-12-22T08:27:49.633Z,8.45
2022-12-22T08:30:39.198Z,8.05
2022-12-22T08:33:28.368Z,8.73
2022-12-22T08:36:17.908Z,8.40
2022-12-22T08:39:08.248Z,8.55
2022-12-22T08:41:57.541Z,8.30
2022-12-22T08:44:48.315Z,9.18
2022-12-22T08:47:37.483Z,8.93
2022-12-22T08:50:27.223Z,9.10
2022-12-22T08:53:37.516Z,8.40
2022-12-22T08:56:25.676Z,9.63
2022-12-22T08:59:15.164Z,9.05
2022-12-22T09:02:06.506Z,8.98
2022-12-22T09:04:55.721Z,8.30
2022-12-22T09:07:44.992Z,8.88
2022-12-22T09:10:34.328Z,9.45
2022-12-22T09:13:24.058Z,9.52
2022-12-22T09:16:13.319Z,9.05
2022-12-22T09:19:03.265Z,9.63
2022-12-22T09:21:52.530Z,8.45
2022-12-22T09:24:41.711Z,9.73
2022-12-22T09:27:32.102Z,8.85
2022-12-22T09:30:21.517Z,9.20
2022-12-22T09:33:10.735Z,9.63
2022-12-22T09:36:00.191Z,9.25
2022-12-22T09:38:58.030Z,9.35
2022-12-22T09:41:51.821Z,9.30
2022-12-22T09:44:45.817Z,8.73
2022-12-22T09:47:39.804Z,8.40
2022-12-22T09:50:29.579Z,8.45
2022-12-22T09:53:23.704Z,7.88
2022-12-22T09:56:17.866Z,8.20
2022-12-22T09:59:15.793Z,8.90
2022-12-22T10:02:12.065Z,8.25
2022-12-22T10:05:29.388Z,8.70
2022-12-22T10:08:29.057Z,8.38
2022-12-22T10:11:20.575Z,8.15
2022-12-22T10:14:12.107Z,9.05
2022-12-22T10:17:22.245Z,8.63
2022-12-22T10:20:27.539Z,8.55
2022-12-22T10:23:23.087Z,8.98
2022-12-22T10:26:34.914Z,9.02
2022-12-22T10:29:24.620Z,9.63
2022-12-22T10:32:17.407Z,9.02
2022-12-22T10:35:08.245Z,7.88
2022-12-22T10:37:57.366Z,8.93
2022-12-22T10:40:49.682Z,8.18
2022-12-22T10:43:49.832Z,8.82
2022-12-22T10:46:43.987Z,9.25
2022-12-22T10:55:40.051Z,7.90
2022-12-22T10:58:30.039Z,9.23
2022-12-22T11:01:28.996Z,8.57
2022-12-22T11:04:25.897Z,8.85
2022-12-22T11:07:15.174Z,9.13
2022-12-22T11:10:15.685Z,9.07
2022-12-22T11:13:20.732Z,9.98
2022-12-22T11:16:16.058Z,8.88
2022-12-22T11:19:29.518Z,9.27
2022-12-22T11:22:42.711Z,9.27
2022-12-22T11:26:10.099Z,9.60
2022-12-22T11:29:23.294Z,9.35
2022-12-22T11:32:18.297Z,9.80
2022-12-22T11:35:28.946Z,9.57
2022-12-22T11:38:45.821Z,10.20
2022-12-22T11:41:48.292Z,10.48
2022-12-22T11:44:55.395Z,8.90
2022-12-22T11:48:14.229Z,9.32
2022-12-22T11:51:43.614Z,9.13
2022-12-22T11:55:11.487Z,9.20
2022-12-22T11:58:09.846Z,8.98
2022-12-22T12:01:16.356Z,8.95
2022-12-22T12:04:22.074Z,9.13
2022-12-22T12:07:33.160Z,9.25
2022-12-22T12:10:25.672Z,9.30
2022-12-22T12:13:41.042Z,10.13
2022-12-22T12:16:35.710Z,8.85
2022-12-22T12:19:45.092Z,9.05
2022-12-22T12:22:43.021Z,9.38
2022-12-22T12:26:06.499Z,9.00
2022-12-22T12:29:20.155Z,8.52
2022-12-22T12:32:20.142Z,9.07
2022-12-22T12:35:32.641Z,8.95
2022-12-22T12:39:06.420Z,7.95
2022-12-22T12:41:47.847Z,9.52
2022-12-22T12:44:38.416Z,9.60
2022-12-22T12:47:37.152Z,8.98
2022-12-22T12:50:35.312Z,8.75
2022-12-22T12:53:29.086Z,9.20
2022-12-22T12:56:18.305Z,8.85
2022-12-22T12:59:08.709Z,8.48
2022-12-22T13:02:00.701Z,8.65
2022-12-22T13:05:14.831Z,8.65
2022-12-22T13:08:18.086Z,8.73
2022-12-22T13:11:07.249Z,8.73
2022-12-22T13:13:57.310Z,9.13
2022-12-22T13:16:46.536Z,8.90
2022-12-22T13:19:36.339Z,8.90
2022-12-22T13:22:25.582Z,8.70
2022-12-22T13:25:19.114Z,9.88
2022-12-22T13:28:16.036Z,8.75
2022-12-22T13:31:30.224Z,8.40
2022-12-22T13:35:30.471Z,8.90
2022-12-22T13:37:59.513Z,8.50
2022-12-22T13:40:48.794Z,7.95
2022-12-22T13:43:39.399Z,9.25
2022-12-22T13:46:28.906Z,8.50
2022-12-22T13:49:43.338Z,8.68
2022-12-22T13:52:30.203Z,8.00
2022-12-22T13:55:26.305Z,8.10
2022-12-22T13:58:31.896Z,8.80
2022-12-22T14:01:21.620Z,8.50
2022-12-22T14:04:15.203Z,7.60
2022-12-22T14:07:22.134Z,7.82
2022-12-22T14:10:12.459Z,7.93
2022-12-22T14:13:06.935Z,7.45
2022-12-22T14:16:06.207Z,8.70
2022-12-22T14:18:58.199Z,8.55
2022-12-22T14:21:51.837Z,8.52
2022-12-22T14:27:58.486Z,8.05
2022-12-22T14:30:51.926Z,7.47
2022-12-22T14:33:51.632Z,8.05
2022-12-22T14:36:46.844Z,7.95
2022-12-22T14:39:36.018Z,8.65
2022-12-22T14:42:25.339Z,9.02
2022-12-22T14:45:19.031Z,8.48
2022-12-22T14:48:12.671Z,9.13
2022-12-22T14:51:03.665Z,7.75
2022-12-22T14:53:58.929Z,8.20
2022-12-22T14:56:51.778Z,8.30
2022-12-22T14:59:41.022Z,8.43
2022-12-22T15:02:40.948Z,7.88
2022-12-22T15:05:40.191Z,8.60
2022-12-22T15:08:45.510Z,7.97
2022-12-22T15:11:40.037Z,8.85
2022-12-22T15:14:38.473Z,8.23
2022-12-22T15:17:28.146Z,7.95
2022-12-22T15:20:25.050Z,7.65
2022-12-22T15:23:17.790Z,8.32
2022-12-22T15:26:07.477Z,8.07
2022-12-22T15:28:57.497Z,9.00
2022-12-22T15:31:46.847Z,8.60
2022-12-22T15:34:36.302Z,7.38
2022-12-22T15:37:25.724Z,7.15
2022-12-22T15:40:21.538Z,8.20
2022-12-22T15:43:28.714Z,8.05
2022-12-22T15:46:23.154Z,8.02
2022-12-22T15:49:20.764Z,7.72
2022-12-22T15:52:14.141Z,7.53
2022-12-22T15:55:03.458Z,8.10
2022-12-22T15:57:57.077Z,8.57
2022-12-22T16:03:35.209Z,7.43
2022-12-22T16:06:24.536Z,7.03
2022-12-22T16:09:32.263Z,8.18
2022-12-22T16:12:21.479Z,7.68
2022-12-22T16:15:15.366Z,7.68
2022-12-22T16:18:05.047Z,7.68
2022-12-22T16:20:54.353Z,8.20
2022-12-22T16:23:45.696Z,7.68
2022-12-22T16:26:37.651Z,7.93
2022-12-22T16:29:27.959Z,8.20
2022-12-22T16:32:25.073Z,8.10
2022-12-22T16:35:16.222Z,7.45
2022-12-22T16:38:05.447Z,7.22
2022-12-22T16:40:55.277Z,7.78
2022-12-22T16:43:50.454Z,8.82
2022-12-22T16:46:40.152Z,8.88
2022-12-22T16:49:29.443Z,8.65
2022-12-22T16:52:40.079Z,7.30
2022-12-22T16:55:29.780Z,7.05
2022-12-22T16:58:19.003Z,7.90
2022-12-22T17:01:08.281Z,7.82
2022-12-22T17:03:59.230Z,7.50
2022-12-22T17:06:51.097Z,7.78
2022-12-22T17:10:05.438Z,7.28
2022-12-22T17:12:57.895Z,7.55
2022-12-22T17:15:47.355Z,7.22
2022-12-22T17:18:37.565Z,7.45
2022-12-22T17:21:29.258Z,7.25
2022-12-22T17:24:27.336Z,7.55
2022-12-22T17:27:18.470Z,8.02
2022-12-22T17:30:18.481Z,7.43
2022-12-22T17:33:13.820Z,7.22
2022-12-22T17:36:03.443Z,8.15
2022-12-22T17:38:52.670Z,7.32
2022-12-22T17:41:42.501Z,7.95
2022-12-22T17:44:31.704Z,7.53
2022-12-22T17:47:31.219Z,7.88
2022-12-22T17:50:26.363Z,7.30
2022-12-22T17:53:20.110Z,7.78
2022-12-22T17:56:21.922Z,6.57
2022-12-22T17:59:13.206Z,6.97
2022-12-22T18:02:02.553Z,7.03
2022-12-22T18:04:51.908Z,6.78
2022-12-22T18:07:43.337Z,6.93
2022-12-22T18:10:35.889Z,7.63
2022-12-22T18:13:28.215Z,7.35
2022-12-22T18:16:19.987Z,7.47
2022-12-22T18:19:09.171Z,7.85
2022-12-22T18:21:58.428Z,7.05
2022-12-22T18:24:49.349Z,7.97
2022-12-22T18:27:38.537Z,7.30
2022-12-22T18:30:31.121Z,7.75
2022-12-22T18:33:20.283Z,8.50
2022-12-22T18:36:20.196Z,7.25
2022-12-22T18:39:18.480Z,7.68
2022-12-22T18:42:25.017Z,7.22
2022-12-22T18:45:17.635Z,6.70
2022-12-22T18:48:07.134Z,8.13
2022-12-22T18:50:56.422Z,7.35
2022-12-22T18:53:45.784Z,6.88
2022-12-22T18:56:35.038Z,7.30
2022-12-22T18:59:26.746Z,7.95
2022-12-22T19:02:30.445Z,7.65
2022-12-22T19:05:21.621Z,7.13
2022-12-22T19:08:20.775Z,7.80
2022-12-22T19:11:12.503Z,7.25
2022-12-22T19:14:01.745Z,7.18
2022-12-22T19:16:51.040Z,7.25
2022-12-22T19:19:40.272Z,7.95
2022-12-22T19:22:29.462Z,6.78
2022-12-22T19:25:26.403Z,7.95
2022-12-22T19:28:34.119Z,7.38
2022-12-22T19:31:30.312Z,7.38
2022-12-22T19:34:21.413Z,7.10
2022-12-22T19:37:11.138Z,7.35
2022-12-22T19:40:00.271Z,6.82
2022-12-22T19:42:52.269Z,7.60
2022-12-22T19:45:41.689Z,8.02
2022-12-22T19:48:30.955Z,6.88
2022-12-22T19:51:20.099Z,7.25
2022-12-22T19:54:09.314Z,7.50
2022-12-22T19:56:58.533Z,6.70
2022-12-22T19:59:50.807Z,7.07
2022-12-22T20:02:40.166Z,6.78
2022-12-22T20:05:32.322Z,7.60
2022-12-22T20:08:21.467Z,7.35
2022-12-22T20:11:16.603Z,7.97
2022-12-22T20:14:05.801Z,6.90
2022-12-22T20:16:54.993Z,7.22
2022-12-22T20:19:44.248Z,7.43
2022-12-22T20:22:33.548Z,7.00
2022-12-22T20:25:29.066Z,6.57
2022-12-22T20:28:27.375Z,7.50
2022-12-22T20:31:19.327Z,7.38
2022-12-22T20:34:09.254Z,7.35
2022-12-22T20:36:59.604Z,7.13
2022-12-22T20:39:48.820Z,6.63
2022-12-22T20:42:38.314Z,7.43
2022-12-22T20:45:31.989Z,6.72
2022-12-22T20:48:38.792Z,7.18
2022-12-22T20:51:30.847Z,6.88
2022-12-22T20:54:19.989Z,6.97
2022-12-22T20:57:14.705Z,6.72
2022-12-22T21:00:03.915Z,7.20
2022-12-22T21:02:53.903Z,7.85
2022-12-22T21:05:43.613Z,6.97
2022-12-22T21:08:32.774Z,6.65
2022-12-22T21:11:22.179Z,6.63
2022-12-22T21:14:11.889Z,7.00
2022-12-22T21:17:01.559Z,7.28
2022-12-22T21:19:50.899Z,7.03
2022-12-22T21:22:40.156Z,6.50
2022-12-22T21:25:29.959Z,6.93
2022-12-22T21:28:35.234Z,6.63
2022-12-22T21:31:24.451Z,7.53
2022-12-22T21:34:13.631Z,7.05
2022-12-22T21:37:04.511Z,6.40
2022-12-22T21:39:53.866Z,6.95
2022-12-22T21:42:43.038Z,6.97
2022-12-22T21:45:36.935Z,6.80
2022-12-22T21:48:28.750Z,7.10
2022-12-22T21:51:17.922Z,7.93
2022-12-22T21:54:07.091Z,7.32
2022-12-22T21:56:56.556Z,7.38
2022-12-22T21:59:45.746Z,6.88
2022-12-22T22:02:35.014Z,6.55
2022-12-22T22:05:29.852Z,7.13
2022-12-22T22:08:19.277Z,6.97
2022-12-22T22:11:18.288Z,6.47
2022-12-22T22:14:07.402Z,6.90
2022-12-22T22:16:56.750Z,6.47
2022-12-22T22:19:45.871Z,6.93
2022-12-22T22:22:35.045Z,6.90
2022-12-22T22:25:26.551Z,5.97
2022-12-22T22:28:15.689Z,6.57
2022-12-22T22:31:11.455Z,6.70
2022-12-22T22:34:00.804Z,7.43
2022-12-22T22:36:49.975Z,7.18
2022-12-22T22:39:39.163Z,6.72
2022-12-22T22:42:28.316Z,6.78
2022-12-22T22:45:25.843Z,7.07
2022-12-22T22:48:21.524Z,6.18
2022-12-22T22:51:12.046Z,6.88
2022-12-22T22:54:01.362Z,7.07
2022-12-22T22:56:50.636Z,7.05
2022-12-22T22:59:40.750Z,6.88
2022-12-22T23:02:30.181Z,6.95
2022-12-22T23:05:22.861Z,6.78
2022-12-22T23:08:13.456Z,6.88
2022-12-22T23:11:04.335Z,6.60
2022-12-22T23:13:55.773Z,6.38
2022-12-22T23:16:44.961Z,6.75
2022-12-22T23:19:34.201Z,6.90
2022-12-22T23:22:23.751Z,7.38
2022-12-22T23:25:12.985Z,6.53
2022-12-22T23:28:02.122Z,6.90
2022-12-22T23:30:53.482Z,6.53
2022-12-22T23:33:42.747Z,6.60
2022-12-22T23:36:32.113Z,6.85
2022-12-22T23:39:21.296Z,6.40
2022-12-22T23:42:10.480Z,6.50
2022-12-22T23:44:59.583Z,6.38
2022-12-22T23:47:48.959Z,6.50
2022-12-22T23:50:38.358Z,6.93
2022-12-22T23:53:27.509Z,6.55
2022-12-22T23:56:20.196Z,6.93
2022-12-22T23:59:09.696Z,7.03
